Olar, SC

10:27 PM EST on February 28, 2015 (GMT -0500)
Edisto Electric HQ | Change Station
CLOSE
Current Station
Personal Weather Station
Location: Bamberg, SC
Elevation: 151 ft
Nearby Weather Stations

Elev 151 ft 33.29 °N, 81.04 °W | Updated 5 seconds ago

Overcast
Overcast
45.2 °F
Feels Like 44 °F
N
3.3
Wind Variable Wind from ENE
Gusts 12.0 mph

Today
High -- | Low -- °F
--% Chance of Precip.
Yesterday
High -- | Low -- °F
Precip. -- in
6:54 AM 6:20 PM
Waxing Gibbous, 82% visible
Pressure 30.60 in
Visibility 10.0 miles
Clouds Overcast 2200 ft
Windchill 44 °F
Dew Point 31 °F
Humidity 55%
Rainfall 0.00 in
Snow Depth Not available.
UV 0 out of 12
Pollen 8.30 out of 12
Air Quality Not available.
Flu Activity Not available.
METAR KOGB 010253Z AUTO 07008KT 10SM OVC022 08/M02 A3060 RMK AO2 SLP361 60000 T00781022 50004

More Conditions Fewer Conditions

Pressure 30.60 in
Visibility 10.0 miles
Clouds Overcast 2200 ft
Windchill 44 °F
Dew Point 31 °F
Humidity 55%
Rainfall 0.00 in
Snow Depth Not available.
UV 0 out of 12
Pollen 8.30 out of 12
Air Quality Not available.
Flu Activity Not available.
METAR KOGB 010253Z AUTO 07008KT 10SM OVC022 08/M02 A3060 RMK AO2 SLP361 60000 T00781022 50004

More Conditions Fewer Conditions

10-Day Weather Forecast

Almanac

Astronomy

Feb. 28, 2015 Rise Set
Actual Time
Civil Twilight
Nautical Twilight
Astronomical Twilight
Moon
Length of Visible Light
Length of Day
Tomorrow will be .
, % of the Moon is Illuminated

Today's Extremes

State Highs State Lows

Community

WunderPhotos

Upload Photos

1,801,282 photos uploaded!

WunderBlogs® & News

Nearby

Air Quality

  Air Quality AQ Index Pollutant
Not available.

Snow Depth

Station Depth Elevation

Earthquake Activity

City Distance Mag. Time & Date
Minimum magnitude displayed is 2.5.

Coastal Water Temperatures

Place Temperature

Nearby Weather Stations